KMHE

Mitchell Municipal Airport

Mitchell, South Dakota, USA
METAR KMHE 210353Z AUTO 33005KT 10SM OVC050 01/M01 A2996 RMK AO2 SLP160 T00061011
Observed Flight Rules
Jan-21 @ 03:53 UTC (49 minutes ago) Visual Flight Rules
Wind Visibility Clouds
330° at 5 knots 10 miles
  • Overcast at 5,000' AGL
Temperatures Readings
Current 1°C / 34°F
Dewpoint -1°C / 30°F
Humidity 87%
Altimeter 29.96" Hg
Pressure 1016 hPa
Elevation 397
METAR KMHE 210353Z AUTO 33005KT 10SM OVC050 01/M01 A2996 RMK AO2 SLP160 T00061011
Observed Flight Rules
Jan-21 @ 03:53 UTC
(49 minutes ago)
VFR
Wind Visibility
330° at 5 knots 10 miles
Clouds
  • Overcast at 5,000' AGL
Temperature Dewpoint
1°C / 34°F -1°C / 30°F
Humidity Altimeter Pressure
87% 29.96" Hg 1016 hPa